sensor_id;sensor_type;location;lat;lon;timestamp;pressure;altitude;pressure_sealevel;temperature
54746;BMP180;40640;48.130;11.356;2022-10-03T00:01:35;96291.00;;;13.30
54746;BMP180;40640;48.130;11.356;2022-10-03T00:05:53;96291.00;;;13.20
54746;BMP180;40640;48.130;11.356;2022-10-03T00:10:11;96293.00;;;13.20
54746;BMP180;40640;48.130;11.356;2022-10-03T00:14:22;96302.00;;;13.10
54746;BMP180;40640;48.130;11.356;2022-10-03T00:18:38;96299.00;;;13.10
54746;BMP180;40640;48.130;11.356;2022-10-03T00:22:47;96303.00;;;13.00
54746;BMP180;40640;48.130;11.356;2022-10-03T00:27:00;96302.00;;;12.90
54746;BMP180;40640;48.130;11.356;2022-10-03T00:31:10;96311.00;;;12.80
54746;BMP180;40640;48.130;11.356;2022-10-03T00:35:28;96315.00;;;12.70
54746;BMP180;40640;48.130;11.356;2022-10-03T00:39:45;96309.00;;;12.70
54746;BMP180;40640;48.130;11.356;2022-10-03T00:44:08;96312.00;;;12.60
54746;BMP180;40640;48.130;11.356;2022-10-03T00:48:49;96317.00;;;12.50
54746;BMP180;40640;48.130;11.356;2022-10-03T00:53:21;96324.00;;;12.40
54746;BMP180;40640;48.130;11.356;2022-10-03T01:02:16;96331.00;;;12.30
54746;BMP180;40640;48.130;11.356;2022-10-03T01:06:29;96319.00;;;12.30
54746;BMP180;40640;48.130;11.356;2022-10-03T01:10:44;96328.00;;;12.20
54746;BMP180;40640;48.130;11.356;2022-10-03T01:15:06;96325.00;;;12.10
54746;BMP180;40640;48.130;11.356;2022-10-03T01:19:26;96326.00;;;12.00
54746;BMP180;40640;48.130;11.356;2022-10-03T01:23:59;96334.00;;;12.00
54746;BMP180;40640;48.130;11.356;2022-10-03T01:28:40;96336.00;;;11.90
54746;BMP180;40640;48.130;11.356;2022-10-03T01:33:09;96332.00;;;11.90
54746;BMP180;40640;48.130;11.356;2022-10-03T01:37:19;96335.00;;;11.90
54746;BMP180;40640;48.130;11.356;2022-10-03T01:41:30;96340.00;;;11.80
54746;BMP180;40640;48.130;11.356;2022-10-03T01:45:43;96346.00;;;11.80
54746;BMP180;40640;48.130;11.356;2022-10-03T01:49:53;96347.00;;;11.70
54746;BMP180;40640;48.130;11.356;2022-10-03T01:54:10;96356.00;;;11.60
54746;BMP180;40640;48.130;11.356;2022-10-03T01:58:21;96364.00;;;11.60
54746;BMP180;40640;48.130;11.356;2022-10-03T02:02:30;96372.00;;;11.60
54746;BMP180;40640;48.130;11.356;2022-10-03T02:06:43;96378.00;;;11.60
54746;BMP180;40640;48.130;11.356;2022-10-03T02:10:52;96374.00;;;11.40
54746;BMP180;40640;48.130;11.356;2022-10-03T02:15:00;96380.00;;;11.40
54746;BMP180;40640;48.130;11.356;2022-10-03T02:19:11;96378.00;;;11.30
54746;BMP180;40640;48.130;11.356;2022-10-03T02:23:35;96367.00;;;11.30
54746;BMP180;40640;48.130;11.356;2022-10-03T02:27:49;96362.00;;;11.20
54746;BMP180;40640;48.130;11.356;2022-10-03T02:32:41;96358.00;;;11.20
54746;BMP180;40640;48.130;11.356;2022-10-03T02:37:11;96363.00;;;11.20
54746;BMP180;40640;48.130;11.356;2022-10-03T02:50:54;96378.00;;;11.00
54746;BMP180;40640;48.130;11.356;2022-10-03T02:55:24;96375.00;;;11.00
54746;BMP180;40640;48.130;11.356;2022-10-03T02:59:50;96375.00;;;10.90
54746;BMP180;40640;48.130;11.356;2022-10-03T03:09:40;96382.00;;;10.90
54746;BMP180;40640;48.130;11.356;2022-10-03T03:14:18;96381.00;;;10.80
54746;BMP180;40640;48.130;11.356;2022-10-03T03:18:32;96398.00;;;10.80
54746;BMP180;40640;48.130;11.356;2022-10-03T03:22:48;96401.00;;;10.80
54746;BMP180;40640;48.130;11.356;2022-10-03T03:31:29;96393.00;;;10.50
54746;BMP180;40640;48.130;11.356;2022-10-03T03:35:41;96401.00;;;10.50
54746;BMP180;40640;48.130;11.356;2022-10-03T03:40:08;96410.00;;;10.40
54746;BMP180;40640;48.130;11.356;2022-10-03T03:44:36;96410.00;;;10.40
54746;BMP180;40640;48.130;11.356;2022-10-03T03:48:56;96403.00;;;10.40
54746;BMP180;40640;48.130;11.356;2022-10-03T03:53:24;96415.00;;;10.30
54746;BMP180;40640;48.130;11.356;2022-10-03T03:57:52;96410.00;;;10.30
54746;BMP180;40640;48.130;11.356;2022-10-03T04:02:08;96420.00;;;10.30
54746;BMP180;40640;48.130;11.356;2022-10-03T04:06:25;96415.00;;;10.20
54746;BMP180;40640;48.130;11.356;2022-10-03T04:10:41;96407.00;;;10.10
54746;BMP180;40640;48.130;11.356;2022-10-03T04:19:27;96413.00;;;10.10
54746;BMP180;40640;48.130;11.356;2022-10-03T04:23:48;96409.00;;;10.00
54746;BMP180;40640;48.130;11.356;2022-10-03T04:28:11;96409.00;;;10.00
54746;BMP180;40640;48.130;11.356;2022-10-03T04:32:38;96405.00;;;10.00
54746;BMP180;40640;48.130;11.356;2022-10-03T04:41:25;96410.00;;;9.80
54746;BMP180;40640;48.130;11.356;2022-10-03T04:45:39;96394.00;;;9.70
54746;BMP180;40640;48.130;11.356;2022-10-03T04:49:50;96399.00;;;9.70
54746;BMP180;40640;48.130;11.356;2022-10-03T04:54:00;96395.00;;;9.70
54746;BMP180;40640;48.130;11.356;2022-10-03T04:58:16;96402.00;;;9.70
54746;BMP180;40640;48.130;11.356;2022-10-03T05:02:26;96398.00;;;9.70
54746;BMP180;40640;48.130;11.356;2022-10-03T05:06:40;96406.00;;;9.60
54746;BMP180;40640;48.130;11.356;2022-10-03T05:10:59;96408.00;;;9.60
54746;BMP180;40640;48.130;11.356;2022-10-03T05:15:17;96405.00;;;9.50
54746;BMP180;40640;48.130;11.356;2022-10-03T05:19:43;96403.00;;;9.30
54746;BMP180;40640;48.130;11.356;2022-10-03T05:23:54;96416.00;;;9.30
54746;BMP180;40640;48.130;11.356;2022-10-03T05:28:11;96421.00;;;9.30
54746;BMP180;40640;48.130;11.356;2022-10-03T05:32:25;96420.00;;;9.30
54746;BMP180;40640;48.130;11.356;2022-10-03T05:36:33;96426.00;;;9.20
54746;BMP180;40640;48.130;11.356;2022-10-03T05:40:38;96422.00;;;9.10
54746;BMP180;40640;48.130;11.356;2022-10-03T05:44:44;96424.00;;;9.10
54746;BMP180;40640;48.130;11.356;2022-10-03T05:48:56;96439.00;;;9.20
54746;BMP180;40640;48.130;11.356;2022-10-03T05:53:15;96439.00;;;9.20
54746;BMP180;40640;48.130;11.356;2022-10-03T05:57:34;96451.00;;;9.20
54746;BMP180;40640;48.130;11.356;2022-10-03T06:02:06;96457.00;;;9.00
54746;BMP180;40640;48.130;11.356;2022-10-03T06:06:25;96454.00;;;9.00
54746;BMP180;40640;48.130;11.356;2022-10-03T06:10:42;96454.00;;;9.10
54746;BMP180;40640;48.130;11.356;2022-10-03T06:15:15;96466.00;;;9.30
54746;BMP180;40640;48.130;11.356;2022-10-03T06:19:36;96474.00;;;9.40
54746;BMP180;40640;48.130;11.356;2022-10-03T06:28:46;96480.00;;;9.60
54746;BMP180;40640;48.130;11.356;2022-10-03T06:38:02;96508.00;;;9.90
54746;BMP180;40640;48.130;11.356;2022-10-03T06:42:35;96504.00;;;10.00
54746;BMP180;40640;48.130;11.356;2022-10-03T06:47:19;96514.00;;;10.20
54746;BMP180;40640;48.130;11.356;2022-10-03T07:00:52;96517.00;;;10.50
54746;BMP180;40640;48.130;11.356;2022-10-03T07:10:03;96523.00;;;10.80
54746;BMP180;40640;48.130;11.356;2022-10-03T07:14:29;96525.00;;;10.80
54746;BMP180;40640;48.130;11.356;2022-10-03T07:19:19;96520.00;;;10.90
54746;BMP180;40640;48.130;11.356;2022-10-03T07:23:55;96526.00;;;11.10
54746;BMP180;40640;48.130;11.356;2022-10-03T07:28:17;96537.00;;;11.40
54746;BMP180;40640;48.130;11.356;2022-10-03T07:32:49;96529.00;;;11.60
54746;BMP180;40640;48.130;11.356;2022-10-03T07:37:35;96527.00;;;11.60
54746;BMP180;40640;48.130;11.356;2022-10-03T07:46:51;96543.00;;;12.30
54746;BMP180;40640;48.130;11.356;2022-10-03T07:51:21;96547.00;;;12.30
54746;BMP180;40640;48.130;11.356;2022-10-03T07:55:35;96550.00;;;12.40
54746;BMP180;40640;48.130;11.356;2022-10-03T08:00:02;96560.00;;;12.30
54746;BMP180;40640;48.130;11.356;2022-10-03T08:04:42;96557.00;;;12.20
54746;BMP180;40640;48.130;11.356;2022-10-03T08:09:05;96558.00;;;12.20
54746;BMP180;40640;48.130;11.356;2022-10-03T08:13:24;96563.00;;;12.20
54746;BMP180;40640;48.130;11.356;2022-10-03T08:22:19;96567.00;;;12.30
54746;BMP180;40640;48.130;11.356;2022-10-03T08:26:43;96569.00;;;12.30
54746;BMP180;40640;48.130;11.356;2022-10-03T08:31:06;96584.00;;;12.30
54746;BMP180;40640;48.130;11.356;2022-10-03T08:35:35;96572.00;;;12.50
54746;BMP180;40640;48.130;11.356;2022-10-03T08:40:21;96575.00;;;12.60
54746;BMP180;40640;48.130;11.356;2022-10-03T08:49:05;96588.00;;;12.60
54746;BMP180;40640;48.130;11.356;2022-10-03T08:53:32;96594.00;;;12.60
54746;BMP180;40640;48.130;11.356;2022-10-03T08:58:02;96597.00;;;12.50
54746;BMP180;40640;48.130;11.356;2022-10-03T09:02:41;96596.00;;;12.50
54746;BMP180;40640;48.130;11.356;2022-10-03T09:07:21;96595.00;;;12.70
54746;BMP180;40640;48.130;11.356;2022-10-03T09:11:54;96586.00;;;12.70
54746;BMP180;40640;48.130;11.356;2022-10-03T09:16:28;96589.00;;;14.40
54746;BMP180;40640;48.130;11.356;2022-10-03T09:25:24;96595.00;;;21.60
54746;BMP180;40640;48.130;11.356;2022-10-03T09:29:43;96602.00;;;24.10
54746;BMP180;40640;48.130;11.356;2022-10-03T09:34:04;96598.00;;;22.60
54746;BMP180;40640;48.130;11.356;2022-10-03T09:43:30;96609.00;;;19.80
54746;BMP180;40640;48.130;11.356;2022-10-03T09:48:23;96599.00;;;19.40
54746;BMP180;40640;48.130;11.356;2022-10-03T09:52:44;96603.00;;;20.80
54746;BMP180;40640;48.130;11.356;2022-10-03T09:57:32;96606.00;;;19.60
54746;BMP180;40640;48.130;11.356;2022-10-03T10:01:47;96599.00;;;18.40
54746;BMP180;40640;48.130;11.356;2022-10-03T10:10:55;96602.00;;;16.60
54746;BMP180;40640;48.130;11.356;2022-10-03T10:15:17;96592.00;;;16.20
54746;BMP180;40640;48.130;11.356;2022-10-03T10:24:34;96587.00;;;22.40
54746;BMP180;40640;48.130;11.356;2022-10-03T10:48:19;96603.00;;;20.80
54746;BMP180;40640;48.130;11.356;2022-10-03T10:57:24;96595.00;;;19.10
54746;BMP180;40640;48.130;11.356;2022-10-03T11:02:04;96593.00;;;22.80
54746;BMP180;40640;48.130;11.356;2022-10-03T11:06:47;96587.00;;;27.30
54746;BMP180;40640;48.130;11.356;2022-10-03T11:11:09;96580.00;;;30.40
54746;BMP180;40640;48.130;11.356;2022-10-03T11:15:46;96578.00;;;32.80
54746;BMP180;40640;48.130;11.356;2022-10-03T11:34:40;96587.00;;;30.20
54746;BMP180;40640;48.130;11.356;2022-10-03T11:38:58;96589.00;;;29.80
54746;BMP180;40640;48.130;11.356;2022-10-03T11:47:56;96596.00;;;29.20
54746;BMP180;40640;48.130;11.356;2022-10-03T11:52:18;96586.00;;;32.40
54746;BMP180;40640;48.130;11.356;2022-10-03T11:56:34;96598.00;;;34.40
54746;BMP180;40640;48.130;11.356;2022-10-03T12:00:41;96595.00;;;35.30
54746;BMP180;40640;48.130;11.356;2022-10-03T12:04:55;96596.00;;;35.30
54746;BMP180;40640;48.130;11.356;2022-10-03T12:09:09;96595.00;;;35.30
54746;BMP180;40640;48.130;11.356;2022-10-03T12:13:19;96598.00;;;33.30
54746;BMP180;40640;48.130;11.356;2022-10-03T12:17:30;96596.00;;;31.00
54746;BMP180;40640;48.130;11.356;2022-10-03T12:21:42;96585.00;;;32.80
54746;BMP180;40640;48.130;11.356;2022-10-03T12:25:50;96585.00;;;32.30
54746;BMP180;40640;48.130;11.356;2022-10-03T12:29:54;96581.00;;;32.70
54746;BMP180;40640;48.130;11.356;2022-10-03T12:34:07;96581.00;;;33.70
54746;BMP180;40640;48.130;11.356;2022-10-03T12:38:32;96579.00;;;32.40
54746;BMP180;40640;48.130;11.356;2022-10-03T12:42:45;96575.00;;;33.60
54746;BMP180;40640;48.130;11.356;2022-10-03T12:46:54;96572.00;;;34.50
54746;BMP180;40640;48.130;11.356;2022-10-03T12:51:11;96573.00;;;34.00
54746;BMP180;40640;48.130;11.356;2022-10-03T12:55:24;96570.00;;;34.50
54746;BMP180;40640;48.130;11.356;2022-10-03T12:59:34;96572.00;;;33.50
54746;BMP180;40640;48.130;11.356;2022-10-03T13:03:43;96564.00;;;33.40
54746;BMP180;40640;48.130;11.356;2022-10-03T13:07:54;96575.00;;;33.60
54746;BMP180;40640;48.130;11.356;2022-10-03T13:12:03;96579.00;;;32.40
54746;BMP180;40640;48.130;11.356;2022-10-03T13:16:17;96572.00;;;33.10
54746;BMP180;40640;48.130;11.356;2022-10-03T13:20:28;96585.00;;;32.20
54746;BMP180;40640;48.130;11.356;2022-10-03T13:24:37;96588.00;;;29.40
54746;BMP180;40640;48.130;11.356;2022-10-03T13:28:55;96587.00;;;27.40
54746;BMP180;40640;48.130;11.356;2022-10-03T13:33:02;96588.00;;;25.90
54746;BMP180;40640;48.130;11.356;2022-10-03T13:37:14;96579.00;;;26.10
54746;BMP180;40640;48.130;11.356;2022-10-03T13:41:25;96570.00;;;26.80
54746;BMP180;40640;48.130;11.356;2022-10-03T13:45:31;96564.00;;;26.90
54746;BMP180;40640;48.130;11.356;2022-10-03T13:49:49;96562.00;;;27.60
54746;BMP180;40640;48.130;11.356;2022-10-03T13:53:56;96571.00;;;27.70
54746;BMP180;40640;48.130;11.356;2022-10-03T13:58:23;96559.00;;;27.40
54746;BMP180;40640;48.130;11.356;2022-10-03T14:02:41;96559.00;;;25.60
54746;BMP180;40640;48.130;11.356;2022-10-03T14:06:47;96556.00;;;24.10
54746;BMP180;40640;48.130;11.356;2022-10-03T14:11:06;96559.00;;;23.10
54746;BMP180;40640;48.130;11.356;2022-10-03T14:15:21;96556.00;;;22.50
54746;BMP180;40640;48.130;11.356;2022-10-03T14:19:34;96560.00;;;22.20
54746;BMP180;40640;48.130;11.356;2022-10-03T14:23:46;96552.00;;;22.80
54746;BMP180;40640;48.130;11.356;2022-10-03T14:27:53;96556.00;;;23.40
54746;BMP180;40640;48.130;11.356;2022-10-03T14:32:00;96555.00;;;23.30
54746;BMP180;40640;48.130;11.356;2022-10-03T14:36:23;96554.00;;;23.00
54746;BMP180;40640;48.130;11.356;2022-10-03T14:40:39;96555.00;;;22.60
54746;BMP180;40640;48.130;11.356;2022-10-03T14:44:45;96541.00;;;22.00
54746;BMP180;40640;48.130;11.356;2022-10-03T14:48:49;96552.00;;;21.60
54746;BMP180;40640;48.130;11.356;2022-10-03T14:52:57;96554.00;;;21.30
54746;BMP180;40640;48.130;11.356;2022-10-03T14:57:20;96546.00;;;21.00
54746;BMP180;40640;48.130;11.356;2022-10-03T15:01:24;96543.00;;;20.80
54746;BMP180;40640;48.130;11.356;2022-10-03T15:05:33;96539.00;;;20.60
54746;BMP180;40640;48.130;11.356;2022-10-03T15:09:46;96533.00;;;20.40
54746;BMP180;40640;48.130;11.356;2022-10-03T15:13:54;96534.00;;;20.30
54746;BMP180;40640;48.130;11.356;2022-10-03T15:18:00;96533.00;;;20.20
54746;BMP180;40640;48.130;11.356;2022-10-03T15:22:20;96517.00;;;20.00
54746;BMP180;40640;48.130;11.356;2022-10-03T15:26:26;96526.00;;;19.80
54746;BMP180;40640;48.130;11.356;2022-10-03T15:30:34;96522.00;;;19.40
54746;BMP180;40640;48.130;11.356;2022-10-03T15:34:38;96523.00;;;19.10
54746;BMP180;40640;48.130;11.356;2022-10-03T15:38:44;96530.00;;;19.00
54746;BMP180;40640;48.130;11.356;2022-10-03T15:43:00;96522.00;;;18.60
54746;BMP180;40640;48.130;11.356;2022-10-03T15:47:07;96515.00;;;18.30
54746;BMP180;40640;48.130;11.356;2022-10-03T15:51:13;96524.00;;;18.10
54746;BMP180;40640;48.130;11.356;2022-10-03T15:55:22;96524.00;;;18.10
54746;BMP180;40640;48.130;11.356;2022-10-03T15:59:30;96519.00;;;18.00
54746;BMP180;40640;48.130;11.356;2022-10-03T16:03:40;96523.00;;;17.90
54746;BMP180;40640;48.130;11.356;2022-10-03T16:07:53;96518.00;;;17.80
54746;BMP180;40640;48.130;11.356;2022-10-03T16:12:09;96508.00;;;17.70
54746;BMP180;40640;48.130;11.356;2022-10-03T16:16:16;96512.00;;;17.50
54746;BMP180;40640;48.130;11.356;2022-10-03T16:20:23;96521.00;;;17.40
54746;BMP180;40640;48.130;11.356;2022-10-03T16:24:30;96515.00;;;17.30
54746;BMP180;40640;48.130;11.356;2022-10-03T16:28:39;96514.00;;;17.10
54746;BMP180;40640;48.130;11.356;2022-10-03T16:32:49;96510.00;;;17.00
54746;BMP180;40640;48.130;11.356;2022-10-03T16:36:53;96520.00;;;16.80
54746;BMP180;40640;48.130;11.356;2022-10-03T16:40:58;96523.00;;;16.70
54746;BMP180;40640;48.130;11.356;2022-10-03T16:45:03;96522.00;;;16.60
54746;BMP180;40640;48.130;11.356;2022-10-03T16:49:17;96525.00;;;16.50
54746;BMP180;40640;48.130;11.356;2022-10-03T16:53:42;96520.00;;;16.40
54746;BMP180;40640;48.130;11.356;2022-10-03T16:57:48;96529.00;;;16.20
54746;BMP180;40640;48.130;11.356;2022-10-03T17:01:52;96524.00;;;16.10
54746;BMP180;40640;48.130;11.356;2022-10-03T17:05:59;96521.00;;;15.90
54746;BMP180;40640;48.130;11.356;2022-10-03T17:10:04;96522.00;;;15.90
54746;BMP180;40640;48.130;11.356;2022-10-03T17:14:08;96530.00;;;15.70
54746;BMP180;40640;48.130;11.356;2022-10-03T17:18:18;96534.00;;;15.60
54746;BMP180;40640;48.130;11.356;2022-10-03T17:22:31;96534.00;;;15.50
54746;BMP180;40640;48.130;11.356;2022-10-03T17:26:37;96522.00;;;15.50
54746;BMP180;40640;48.130;11.356;2022-10-03T17:30:44;96526.00;;;15.30
54746;BMP180;40640;48.130;11.356;2022-10-03T17:34:53;96523.00;;;15.20
54746;BMP180;40640;48.130;11.356;2022-10-03T17:39:01;96527.00;;;15.10
54746;BMP180;40640;48.130;11.356;2022-10-03T17:43:11;96529.00;;;15.00
54746;BMP180;40640;48.130;11.356;2022-10-03T17:47:22;96532.00;;;14.90
54746;BMP180;40640;48.130;11.356;2022-10-03T17:51:29;96536.00;;;14.90
54746;BMP180;40640;48.130;11.356;2022-10-03T17:55:37;96538.00;;;14.70
54746;BMP180;40640;48.130;11.356;2022-10-03T17:59:44;96539.00;;;14.50
54746;BMP180;40640;48.130;11.356;2022-10-03T18:03:54;96544.00;;;14.20
54746;BMP180;40640;48.130;11.356;2022-10-03T18:08:02;96537.00;;;14.00
54746;BMP180;40640;48.130;11.356;2022-10-03T18:12:19;96531.00;;;13.80
54746;BMP180;40640;48.130;11.356;2022-10-03T18:16:32;96530.00;;;13.60
54746;BMP180;40640;48.130;11.356;2022-10-03T18:20:41;96529.00;;;13.60
54746;BMP180;40640;48.130;11.356;2022-10-03T18:24:53;96519.00;;;13.60
54746;BMP180;40640;48.130;11.356;2022-10-03T18:29:18;96529.00;;;13.50
54746;BMP180;40640;48.130;11.356;2022-10-03T18:33:27;96526.00;;;13.50
54746;BMP180;40640;48.130;11.356;2022-10-03T18:42:11;96528.00;;;13.40
54746;BMP180;40640;48.130;11.356;2022-10-03T18:46:19;96522.00;;;13.30
54746;BMP180;40640;48.130;11.356;2022-10-03T18:50:28;96516.00;;;13.00
54746;BMP180;40640;48.130;11.356;2022-10-03T18:54:44;96512.00;;;12.90
54746;BMP180;40640;48.130;11.356;2022-10-03T18:59:04;96524.00;;;12.70
54746;BMP180;40640;48.130;11.356;2022-10-03T19:03:12;96520.00;;;12.60
54746;BMP180;40640;48.130;11.356;2022-10-03T19:07:19;96522.00;;;12.50
54746;BMP180;40640;48.130;11.356;2022-10-03T19:11:27;96533.00;;;12.30
54746;BMP180;40640;48.130;11.356;2022-10-03T19:15:51;96533.00;;;12.30
54746;BMP180;40640;48.130;11.356;2022-10-03T19:20:00;96525.00;;;12.30
54746;BMP180;40640;48.130;11.356;2022-10-03T19:24:17;96521.00;;;12.30
54746;BMP180;40640;48.130;11.356;2022-10-03T19:28:45;96520.00;;;12.30
54746;BMP180;40640;48.130;11.356;2022-10-03T19:32:53;96516.00;;;12.10
54746;BMP180;40640;48.130;11.356;2022-10-03T19:36:59;96516.00;;;11.90
54746;BMP180;40640;48.130;11.356;2022-10-03T19:41:05;96508.00;;;11.80
54746;BMP180;40640;48.130;11.356;2022-10-03T19:45:11;96503.00;;;11.70
54746;BMP180;40640;48.130;11.356;2022-10-03T19:49:23;96509.00;;;11.50
54746;BMP180;40640;48.130;11.356;2022-10-03T19:53:28;96498.00;;;11.40
54746;BMP180;40640;48.130;11.356;2022-10-03T19:57:39;96491.00;;;11.20
54746;BMP180;40640;48.130;11.356;2022-10-03T20:01:43;96501.00;;;11.00
54746;BMP180;40640;48.130;11.356;2022-10-03T20:05:53;96507.00;;;11.00
54746;BMP180;40640;48.130;11.356;2022-10-03T20:10:12;96504.00;;;11.00
54746;BMP180;40640;48.130;11.356;2022-10-03T20:14:19;96504.00;;;11.10
54746;BMP180;40640;48.130;11.356;2022-10-03T20:18:25;96505.00;;;11.10
54746;BMP180;40640;48.130;11.356;2022-10-03T20:22:31;96495.00;;;11.00
54746;BMP180;40640;48.130;11.356;2022-10-03T20:26:43;96499.00;;;10.90
54746;BMP180;40640;48.130;11.356;2022-10-03T20:30:49;96510.00;;;11.00
54746;BMP180;40640;48.130;11.356;2022-10-03T20:34:54;96496.00;;;11.10
54746;BMP180;40640;48.130;11.356;2022-10-03T20:39:06;96489.00;;;10.90
54746;BMP180;40640;48.130;11.356;2022-10-03T20:43:34;96486.00;;;10.80
54746;BMP180;40640;48.130;11.356;2022-10-03T20:47:49;96485.00;;;11.00
54746;BMP180;40640;48.130;11.356;2022-10-03T20:51:58;96478.00;;;10.90
54746;BMP180;40640;48.130;11.356;2022-10-03T20:56:06;96483.00;;;10.90
54746;BMP180;40640;48.130;11.356;2022-10-03T21:00:18;96479.00;;;10.80
54746;BMP180;40640;48.130;11.356;2022-10-03T21:04:27;96487.00;;;10.70
54746;BMP180;40640;48.130;11.356;2022-10-03T21:08:34;96478.00;;;10.60
54746;BMP180;40640;48.130;11.356;2022-10-03T21:12:39;96476.00;;;10.50
54746;BMP180;40640;48.130;11.356;2022-10-03T21:16:45;96477.00;;;10.40
54746;BMP180;40640;48.130;11.356;2022-10-03T21:20:59;96467.00;;;10.50
54746;BMP180;40640;48.130;11.356;2022-10-03T21:25:06;96460.00;;;10.50
54746;BMP180;40640;48.130;11.356;2022-10-03T21:29:25;96466.00;;;10.20
54746;BMP180;40640;48.130;11.356;2022-10-03T21:33:37;96455.00;;;10.10
54746;BMP180;40640;48.130;11.356;2022-10-03T21:37:43;96447.00;;;10.10
54746;BMP180;40640;48.130;11.356;2022-10-03T21:41:57;96465.00;;;10.00
54746;BMP180;40640;48.130;11.356;2022-10-03T21:46:10;96457.00;;;10.10
54746;BMP180;40640;48.130;11.356;2022-10-03T21:50:20;96454.00;;;9.90
54746;BMP180;40640;48.130;11.356;2022-10-03T21:54:29;96451.00;;;9.90
54746;BMP180;40640;48.130;11.356;2022-10-03T22:03:05;96438.00;;;10.10
54746;BMP180;40640;48.130;11.356;2022-10-03T22:07:14;96422.00;;;10.00
54746;BMP180;40640;48.130;11.356;2022-10-03T22:11:28;96423.00;;;9.80
54746;BMP180;40640;48.130;11.356;2022-10-03T22:15:39;96417.00;;;9.80
54746;BMP180;40640;48.130;11.356;2022-10-03T22:19:48;96408.00;;;9.60
54746;BMP180;40640;48.130;11.356;2022-10-03T22:23:59;96409.00;;;9.50
54746;BMP180;40640;48.130;11.356;2022-10-03T22:28:12;96403.00;;;9.50
54746;BMP180;40640;48.130;11.356;2022-10-03T22:32:21;96403.00;;;9.50
54746;BMP180;40640;48.130;11.356;2022-10-03T22:36:27;96388.00;;;9.50
54746;BMP180;40640;48.130;11.356;2022-10-03T22:40:31;96378.00;;;9.60
54746;BMP180;40640;48.130;11.356;2022-10-03T22:44:35;96380.00;;;9.50
54746;BMP180;40640;48.130;11.356;2022-10-03T22:48:42;96387.00;;;9.40
54746;BMP180;40640;48.130;11.356;2022-10-03T22:52:48;96387.00;;;9.40
54746;BMP180;40640;48.130;11.356;2022-10-03T22:56:54;96373.00;;;9.30
54746;BMP180;40640;48.130;11.356;2022-10-03T23:01:00;96373.00;;;9.20
54746;BMP180;40640;48.130;11.356;2022-10-03T23:05:06;96374.00;;;9.00
54746;BMP180;40640;48.130;11.356;2022-10-03T23:09:14;96360.00;;;9.00
54746;BMP180;40640;48.130;11.356;2022-10-03T23:13:31;96369.00;;;9.00
54746;BMP180;40640;48.130;11.356;2022-10-03T23:17:51;96362.00;;;9.10
54746;BMP180;40640;48.130;11.356;2022-10-03T23:21:59;96355.00;;;9.10
54746;BMP180;40640;48.130;11.356;2022-10-03T23:26:28;96356.00;;;9.10
54746;BMP180;40640;48.130;11.356;2022-10-03T23:30:54;96349.00;;;9.00
54746;BMP180;40640;48.130;11.356;2022-10-03T23:35:14;96357.00;;;8.80
54746;BMP180;40640;48.130;11.356;2022-10-03T23:39:30;96357.00;;;9.00
54746;BMP180;40640;48.130;11.356;2022-10-03T23:43:36;96370.00;;;9.00
54746;BMP180;40640;48.130;11.356;2022-10-03T23:47:43;96358.00;;;9.00
54746;BMP180;40640;48.130;11.356;2022-10-03T23:51:46;96359.00;;;9.10
54746;BMP180;40640;48.130;11.356;2022-10-03T23:55:50;96360.00;;;9.10
54746;BMP180;40640;48.130;11.356;2022-10-03T23:59:53;96365.00;;;9.20
